createdAt,value
2019-05-06T00:01:15.054Z,101896.45
2019-05-06T00:03:45.231Z,101896.17
2019-05-06T00:06:15.012Z,101899.09
2019-05-06T00:08:44.745Z,101897.50
2019-05-06T00:11:14.614Z,101903.38
2019-05-06T00:13:44.647Z,101899.13
2019-05-06T00:16:14.556Z,101898.27
2019-05-06T00:18:45.082Z,101895.68
2019-05-06T00:21:15.015Z,101896.31
2019-05-06T00:23:46.553Z,101895.80
2019-05-06T00:26:30.707Z,101898.80
2019-05-06T00:29:04.333Z,101901.95
2019-05-06T00:31:34.540Z,101896.66
2019-05-06T00:34:04.723Z,101898.80
2019-05-06T00:36:34.624Z,101899.03
2019-05-06T00:39:07.591Z,101897.77
2019-05-06T00:41:37.476Z,101900.76
2019-05-06T00:44:07.310Z,101903.77
2019-05-06T00:46:36.955Z,101900.06
2019-05-06T00:49:06.678Z,101889.82
2019-05-06T00:51:36.468Z,101891.84
2019-05-06T00:54:14.253Z,101899.88
2019-05-06T00:56:44.721Z,101897.54
2019-05-06T00:59:14.768Z,101893.38
2019-05-06T01:01:44.463Z,101893.57
2019-05-06T01:04:14.249Z,101893.22
2019-05-06T01:06:44.248Z,101890.22
2019-05-06T01:09:16.024Z,101894.08
2019-05-06T01:11:47.384Z,101900.42
2019-05-06T01:14:24.667Z,101904.25
2019-05-06T01:16:54.860Z,101903.73
2019-05-06T01:19:24.707Z,101902.88
2019-05-06T01:21:54.514Z,101909.96
2019-05-06T01:24:24.212Z,101902.25
2019-05-06T01:26:53.930Z,101899.65
2019-05-06T01:29:24.208Z,101902.99
2019-05-06T01:31:54.520Z,101896.38
2019-05-06T01:34:24.609Z,101898.36
2019-05-06T01:36:54.787Z,101900.61
2019-05-06T01:39:26.153Z,101905.32
2019-05-06T01:42:04.475Z,101900.22
2019-05-06T01:44:34.350Z,101900.64
2019-05-06T01:47:04.097Z,101902.78
2019-05-06T01:49:34.118Z,101904.91
2019-05-06T01:52:04.297Z,101903.58
2019-05-06T01:54:34.465Z,101896.20
2019-05-06T01:57:04.707Z,101901.84
2019-05-06T01:59:34.811Z,101900.04
2019-05-06T02:02:05.801Z,101899.63
2019-05-06T02:04:35.755Z,101903.58
2019-05-06T02:07:05.548Z,101901.13
2019-05-06T02:09:35.355Z,101898.19
2019-05-06T02:12:05.520Z,101901.36
2019-05-06T02:14:35.343Z,101902.40
2019-05-06T02:17:05.052Z,101906.04
2019-05-06T02:19:35.413Z,101904.81
2019-05-06T02:22:06.842Z,101898.89
2019-05-06T02:24:38.383Z,101897.44
2019-05-06T02:27:08.104Z,101896.39
2019-05-06T02:29:43.436Z,101894.84
2019-05-06T02:32:31.926Z,101895.51
2019-05-06T02:35:05.608Z,101891.05
2019-05-06T02:37:39.790Z,101886.42
2019-05-06T02:40:32.996Z,101885.27
2019-05-06T02:43:03.253Z,101890.61
2019-05-06T02:45:33.693Z,101894.13
2019-05-06T02:48:13.464Z,101892.80
2019-05-06T02:50:45.178Z,101902.32
2019-05-06T02:53:16.720Z,101898.64
2019-05-06T02:55:46.491Z,101891.25
2019-05-06T02:58:16.413Z,101894.53
2019-05-06T03:00:46.235Z,101890.89
2019-05-06T03:03:16.303Z,101889.11
2019-05-06T03:05:45.984Z,101890.66
2019-05-06T03:08:15.670Z,101889.56
2019-05-06T03:10:45.561Z,101898.67
2019-05-06T03:13:15.247Z,101901.69
2019-05-06T03:15:44.954Z,101899.86
2019-05-06T03:18:15.262Z,101898.95
2019-05-06T03:20:54.086Z,101898.14
2019-05-06T03:23:25.489Z,101896.45
2019-05-06T03:25:55.150Z,101891.70
2019-05-06T03:28:24.818Z,101892.21
2019-05-06T03:30:56.708Z,101891.48
2019-05-06T03:33:47.192Z,101887.52
2019-05-06T03:36:07.526Z,101887.06
2019-05-06T03:38:29.020Z,101890.30
2019-05-06T03:40:59.151Z,101884.79
2019-05-06T03:43:28.908Z,101880.09
2019-05-06T03:46:15.040Z,101882.73
2019-05-06T03:48:53.797Z,101880.91
2019-05-06T03:51:23.528Z,101887.28
2019-05-06T03:53:56.732Z,101887.19
2019-05-06T03:56:26.680Z,101877.48
2019-05-06T03:58:58.506Z,101879.98
2019-05-06T04:01:28.742Z,101884.08
2019-05-06T04:03:58.382Z,101886.63
2019-05-06T04:06:28.964Z,101882.08
2019-05-06T04:08:59.215Z,101886.53
2019-05-06T04:11:29.332Z,101889.53
2019-05-06T04:14:02.721Z,101889.58
2019-05-06T04:16:34.147Z,101891.93
2019-05-06T04:19:13.027Z,101885.59
2019-05-06T04:21:47.739Z,101889.74
2019-05-06T04:24:35.506Z,101889.94
2019-05-06T04:27:49.668Z,101889.52
2019-05-06T04:30:24.033Z,101886.99
2019-05-06T04:32:53.215Z,101885.36
2019-05-06T04:35:23.365Z,101885.48
2019-05-06T04:37:53.886Z,101876.12
2019-05-06T04:40:24.136Z,101879.89
2019-05-06T04:42:54.092Z,101886.98
2019-05-06T04:45:23.947Z,101888.08
2019-05-06T04:47:54.150Z,101885.83
2019-05-06T04:50:24.501Z,101892.16
2019-05-06T04:53:04.546Z,101893.61
2019-05-06T04:55:35.933Z,101888.13
2019-05-06T04:58:06.993Z,101891.08
2019-05-06T05:00:38.381Z,101892.75
2019-05-06T05:03:08.156Z,101891.83
2019-05-06T05:05:37.984Z,101902.77
2019-05-06T05:08:07.839Z,101899.41
2019-05-06T05:10:37.487Z,101903.11
2019-05-06T05:13:09.130Z,101899.14
2019-05-06T05:15:41.781Z,101895.45
2019-05-06T05:18:12.976Z,101902.72
2019-05-06T05:20:46.545Z,101894.94
2019-05-06T05:23:14.970Z,101896.09
2019-05-06T05:25:44.852Z,101900.64
2019-05-06T05:28:14.939Z,101896.20
2019-05-06T05:30:44.828Z,101898.50
2019-05-06T05:33:14.881Z,101891.70
2019-05-06T05:35:44.791Z,101893.41
2019-05-06T05:38:14.991Z,101890.98
2019-05-06T05:40:45.284Z,101886.94
2019-05-06T05:43:17.834Z,101895.84
2019-05-06T05:45:48.201Z,101891.52
2019-05-06T05:48:35.942Z,101887.91
2019-05-06T05:51:05.944Z,101887.50
2019-05-06T05:53:35.751Z,101880.22
2019-05-06T05:56:05.876Z,101877.36
2019-05-06T05:58:35.776Z,101893.43
2019-05-06T06:01:05.690Z,101899.55
2019-05-06T06:03:35.643Z,101893.34
2019-05-06T06:06:07.439Z,101904.83
2019-05-06T06:08:37.260Z,101910.98
2019-05-06T06:11:12.281Z,101914.12
2019-05-06T06:13:43.355Z,101911.83
2019-05-06T06:16:18.801Z,101910.50
2019-05-06T06:19:03.812Z,101910.31
2019-05-06T06:21:47.195Z,101914.66
2019-05-06T06:24:18.987Z,101901.23
2019-05-06T06:26:48.743Z,101906.27
2019-05-06T06:29:18.634Z,101901.56
2019-05-06T06:31:52.266Z,101907.34
2019-05-06T06:34:35.268Z,101907.52
2019-05-06T06:37:22.905Z,101897.38
2019-05-06T06:39:54.138Z,101901.36
2019-05-06T06:42:24.402Z,101899.72
2019-05-06T06:44:54.393Z,101904.68
2019-05-06T06:47:24.169Z,101910.09
2019-05-06T06:49:54.003Z,101904.91
2019-05-06T06:52:23.750Z,101902.86
2019-05-06T06:54:53.423Z,101909.26
2019-05-06T06:57:27.481Z,101906.48
2019-05-06T07:00:04.131Z,101906.73
2019-05-06T07:02:36.625Z,101907.81
2019-05-06T07:05:23.918Z,101907.87
2019-05-06T07:07:46.636Z,101908.17
2019-05-06T07:10:32.270Z,101908.50
2019-05-06T07:13:02.867Z,101906.98
2019-05-06T07:15:33.607Z,101902.13
2019-05-06T07:18:03.644Z,101911.11
2019-05-06T07:20:35.134Z,101903.89
2019-05-06T07:23:22.414Z,101897.23
2019-05-06T07:25:53.806Z,101898.49
2019-05-06T07:28:25.504Z,101897.99
2019-05-06T07:30:56.166Z,101899.19
2019-05-06T07:33:26.305Z,101894.83
2019-05-06T07:35:56.069Z,101892.16
2019-05-06T07:38:25.847Z,101897.16
2019-05-06T07:40:57.281Z,101895.08
2019-05-06T07:43:34.454Z,101894.87
2019-05-06T07:46:23.547Z,101890.37
2019-05-06T07:48:53.526Z,101896.64
2019-05-06T07:51:23.903Z,101894.64
2019-05-06T07:53:53.886Z,101892.63
2019-05-06T07:56:23.635Z,101898.77
2019-05-06T07:58:55.224Z,101895.03
2019-05-06T08:01:26.168Z,101893.58
2019-05-06T08:03:55.898Z,101893.36
2019-05-06T08:06:25.557Z,101889.70
2019-05-06T08:08:55.232Z,101884.95
2019-05-06T08:11:26.123Z,101884.98
2019-05-06T08:13:56.201Z,101882.09
2019-05-06T08:16:27.591Z,101885.55
2019-05-06T08:18:57.281Z,101881.73
2019-05-06T08:21:32.654Z,101882.36
2019-05-06T08:24:02.787Z,101877.95
2019-05-06T08:26:32.722Z,101873.19
2019-05-06T08:29:02.874Z,101880.67
2019-05-06T08:31:32.841Z,101866.58
2019-05-06T08:34:02.778Z,101863.19
2019-05-06T08:36:34.189Z,101855.16
2019-05-06T08:39:06.160Z,101863.17
2019-05-06T08:41:35.994Z,101859.73
2019-05-06T08:44:06.844Z,101864.80
2019-05-06T08:46:36.617Z,101862.12
2019-05-06T08:49:06.252Z,101864.78
2019-05-06T08:51:42.427Z,101868.27
2019-05-06T08:54:32.353Z,101866.66
2019-05-06T08:57:02.569Z,101866.67
2019-05-06T08:59:32.466Z,101869.58
2019-05-06T09:02:03.610Z,101869.88
2019-05-06T09:04:33.425Z,101872.55
2019-05-06T09:07:03.153Z,101859.99
2019-05-06T09:09:33.090Z,101868.54
2019-05-06T09:12:03.113Z,101859.66
2019-05-06T09:14:32.916Z,101858.55
2019-05-06T09:17:03.059Z,101862.28
2019-05-06T09:19:33.289Z,101859.16
2019-05-06T09:22:03.546Z,101853.27
2019-05-06T09:24:33.241Z,101856.73
2019-05-06T09:27:04.544Z,101856.48
2019-05-06T09:29:47.826Z,101855.86
2019-05-06T09:32:22.661Z,101848.30
2019-05-06T09:34:54.502Z,101847.45
2019-05-06T09:37:24.413Z,101847.39
2019-05-06T09:39:54.268Z,101839.64
2019-05-06T09:42:24.003Z,101841.73
2019-05-06T09:44:54.462Z,101848.23
2019-05-06T09:47:28.628Z,101842.76
2019-05-06T09:49:58.396Z,101841.02
2019-05-06T09:52:28.222Z,101853.03
2019-05-06T09:54:59.633Z,101850.86
2019-05-06T09:57:32.724Z,101849.70
2019-05-06T10:00:04.711Z,101857.30
2019-05-06T10:02:34.524Z,101856.77
2019-05-06T10:05:05.956Z,101857.27
2019-05-06T10:07:35.640Z,101852.22
2019-05-06T10:10:06.845Z,101861.05
2019-05-06T10:12:36.493Z,101854.71
2019-05-06T10:15:07.055Z,101857.14
2019-05-06T10:17:36.765Z,101855.03
2019-05-06T10:20:07.851Z,101851.63
2019-05-06T10:22:37.709Z,101851.93
2019-05-06T10:25:08.045Z,101844.77
2019-05-06T10:27:39.541Z,101841.02
2019-05-06T10:30:17.370Z,101839.67
2019-05-06T10:32:54.880Z,101837.81
2019-05-06T10:35:29.169Z,101839.66
2019-05-06T10:38:22.823Z,101842.36
2019-05-06T10:41:06.561Z,101837.54
2019-05-06T10:44:07.188Z,101835.95
2019-05-06T10:46:36.871Z,101849.56
2019-05-06T10:49:06.602Z,101851.63
2019-05-06T10:51:43.214Z,101840.89
2019-05-06T10:54:12.904Z,101847.94
2019-05-06T10:56:50.682Z,101844.17
2019-05-06T10:59:15.615Z,101840.94
2019-05-06T11:01:47.045Z,101835.11
2019-05-06T11:04:16.736Z,101838.08
2019-05-06T11:06:46.614Z,101835.38
2019-05-06T11:09:16.467Z,101833.30
2019-05-06T11:11:46.272Z,101828.30
2019-05-06T11:14:16.107Z,101824.33
2019-05-06T11:16:45.796Z,101823.84
2019-05-06T11:19:15.472Z,101816.94
2019-05-06T11:21:45.418Z,101817.77
2019-05-06T11:24:15.233Z,101819.90
2019-05-06T11:26:44.916Z,101810.03
2019-05-06T11:29:16.234Z,101808.44
2019-05-06T11:31:54.363Z,101814.32
2019-05-06T11:34:26.297Z,101816.72
2019-05-06T11:37:15.066Z,101811.65
2019-05-06T11:39:44.927Z,101819.91
2019-05-06T11:42:28.084Z,101824.45
2019-05-06T11:44:46.178Z,101818.28
2019-05-06T11:47:15.851Z,101816.94
2019-05-06T11:49:45.701Z,101823.37
2019-05-06T11:52:15.360Z,101820.16
2019-05-06T11:54:45.213Z,101816.11
2019-05-06T11:57:14.902Z,101808.36
2019-05-06T11:59:44.640Z,101814.73
2019-05-06T12:02:24.742Z,101806.98
2019-05-06T12:04:54.438Z,101802.68
2019-05-06T12:07:24.860Z,101811.70
2019-05-06T12:09:54.803Z,101809.14
2019-05-06T12:12:24.610Z,101806.93
2019-05-06T12:14:54.377Z,101812.18
2019-05-06T12:17:24.142Z,101809.26
2019-05-06T12:19:53.898Z,101809.47
2019-05-06T12:22:25.403Z,101810.77
2019-05-06T12:24:55.136Z,101810.80
2019-05-06T12:27:43.173Z,101809.70
2019-05-06T12:30:16.769Z,101805.65
2019-05-06T12:32:48.172Z,101814.13
2019-05-06T12:35:17.939Z,101814.94
2019-05-06T12:37:49.321Z,101803.78
2019-05-06T12:40:19.291Z,101797.94
2019-05-06T12:42:53.245Z,101804.28
2019-05-06T12:45:26.893Z,101804.28
2019-05-06T12:47:58.314Z,101794.00
2019-05-06T12:50:28.135Z,101799.53
2019-05-06T12:52:58.080Z,101798.51
2019-05-06T12:55:28.017Z,101792.87
2019-05-06T12:57:57.723Z,101794.81
2019-05-06T13:00:29.325Z,101794.53
2019-05-06T13:02:59.096Z,101800.29
2019-05-06T13:05:28.808Z,101805.05
2019-05-06T13:07:58.549Z,101804.18
2019-05-06T13:10:28.321Z,101800.97
2019-05-06T13:12:59.758Z,101796.02
2019-05-06T13:15:29.455Z,101796.95
2019-05-06T13:17:59.429Z,101788.52
2019-05-06T13:20:34.360Z,101784.14
2019-05-06T13:23:20.861Z,101789.78
2019-05-06T13:25:46.819Z,101782.75
2019-05-06T13:28:18.124Z,101776.44
2019-05-06T13:30:47.871Z,101787.05
2019-05-06T13:33:35.469Z,101779.95
2019-05-06T13:36:07.216Z,101776.48
2019-05-06T13:38:37.263Z,101770.91
2019-05-06T13:41:07.009Z,101767.62
2019-05-06T13:43:38.430Z,101768.52
2019-05-06T13:46:17.195Z,101767.25
2019-05-06T13:48:57.553Z,101766.29
2019-05-06T13:51:34.993Z,101769.31
2019-05-06T13:54:04.909Z,101761.30
2019-05-06T13:56:34.643Z,101764.30
2019-05-06T13:59:05.300Z,101760.01
2019-05-06T14:01:43.506Z,101768.84
2019-05-06T14:04:13.678Z,101766.20
2019-05-06T14:06:43.557Z,101757.41
2019-05-06T14:09:27.934Z,101749.91
2019-05-06T14:11:44.827Z,101749.12
2019-05-06T14:14:14.479Z,101750.72
2019-05-06T14:16:44.165Z,101747.25
2019-05-06T14:19:13.835Z,101755.52
2019-05-06T14:21:43.936Z,101751.77
2019-05-06T14:24:17.152Z,101751.22
2019-05-06T14:26:57.761Z,101746.09
2019-05-06T14:29:28.742Z,101749.30
2019-05-06T14:31:59.424Z,101742.22
2019-05-06T14:34:29.078Z,101743.25
2019-05-06T14:36:58.756Z,101743.81
2019-05-06T14:39:49.044Z,101749.97
2019-05-06T14:42:04.563Z,101753.70
2019-05-06T14:44:34.273Z,101755.69
2019-05-06T14:47:06.874Z,101756.23
2019-05-06T14:49:36.531Z,101751.17
2019-05-06T14:52:06.288Z,101753.06
2019-05-06T14:54:37.668Z,101749.89
2019-05-06T14:57:09.097Z,101750.98
2019-05-06T14:59:38.910Z,101757.96
2019-05-06T15:02:08.730Z,101764.91
2019-05-06T15:04:38.484Z,101772.13
2019-05-06T15:07:08.224Z,101771.05
2019-05-06T15:09:55.324Z,101772.64
2019-05-06T15:12:09.397Z,101781.16
2019-05-06T15:14:39.271Z,101773.16
2019-05-06T15:17:08.942Z,101774.70
2019-05-06T15:19:38.691Z,101774.11
2019-05-06T15:22:08.523Z,101771.38
2019-05-06T15:24:38.230Z,101771.36
2019-05-06T15:27:08.157Z,101772.69
2019-05-06T15:29:38.181Z,101774.25
2019-05-06T15:32:22.183Z,101777.94
2019-05-06T15:34:56.515Z,101778.97
2019-05-06T15:37:30.403Z,101776.80
2019-05-06T15:40:00.079Z,101776.51
2019-05-06T15:42:29.882Z,101776.22
2019-05-06T15:44:59.618Z,101776.73
2019-05-06T15:47:29.681Z,101778.05
2019-05-06T15:49:59.434Z,101778.59
2019-05-06T15:52:29.286Z,101783.63
2019-05-06T15:54:58.984Z,101774.48
2019-05-06T15:57:28.694Z,101767.30
2019-05-06T15:59:58.476Z,101758.27
2019-05-06T16:02:28.423Z,101757.45
2019-05-06T16:04:58.464Z,101744.17
2019-05-06T16:07:28.159Z,101750.83
2019-05-06T16:09:57.855Z,101753.55
2019-05-06T16:12:27.540Z,101749.87
2019-05-06T16:14:57.271Z,101746.42
2019-05-06T16:17:27.021Z,101741.09
2019-05-06T16:19:56.787Z,101744.30
2019-05-06T16:22:26.595Z,101740.31
2019-05-06T16:24:57.939Z,101733.62
2019-05-06T16:27:27.759Z,101736.27
2019-05-06T16:29:57.575Z,101733.59
2019-05-06T16:32:27.345Z,101732.20
2019-05-06T16:34:57.172Z,101730.65
2019-05-06T16:37:26.904Z,101724.77
2019-05-06T16:39:56.680Z,101728.00
2019-05-06T16:42:26.436Z,101726.13
2019-05-06T16:44:56.218Z,101721.63
2019-05-06T16:47:38.699Z,101717.95
2019-05-06T16:50:15.938Z,101723.29
2019-05-06T16:52:45.942Z,101718.77
2019-05-06T16:55:18.694Z,101713.72
2019-05-06T16:57:52.354Z,101719.86
2019-05-06T17:00:23.872Z,101713.49
2019-05-06T17:03:14.623Z,101717.48
2019-05-06T17:06:01.891Z,101715.33
2019-05-06T17:08:33.363Z,101716.12
2019-05-06T17:11:04.748Z,101708.91
2019-05-06T17:13:37.692Z,101706.23
2019-05-06T17:16:09.121Z,101709.44
2019-05-06T17:18:38.897Z,101714.77
2019-05-06T17:21:08.690Z,101720.09
2019-05-06T17:23:38.390Z,101715.58
2019-05-06T17:26:08.143Z,101720.63
2019-05-06T17:28:54.969Z,101718.20
2019-05-06T17:31:32.880Z,101718.44
2019-05-06T17:34:07.546Z,101716.80
2019-05-06T17:36:38.960Z,101720.54
2019-05-06T17:39:13.317Z,101716.23
2019-05-06T17:41:48.516Z,101718.58
2019-05-06T17:44:15.594Z,101718.03
2019-05-06T17:46:47.899Z,101723.07
2019-05-06T17:49:23.423Z,101713.78
2019-05-06T17:52:09.592Z,101716.41
2019-05-06T17:54:43.014Z,101718.00
2019-05-06T17:57:13.029Z,101707.61
2019-05-06T17:59:43.770Z,101709.95
2019-05-06T18:02:19.329Z,101705.16
2019-05-06T18:04:49.273Z,101703.53
2019-05-06T18:07:19.016Z,101701.42
2019-05-06T18:09:48.836Z,101703.53
2019-05-06T18:12:18.571Z,101714.15
2019-05-06T18:14:48.414Z,101706.42
2019-05-06T18:17:18.139Z,101715.80
2019-05-06T18:19:47.906Z,101715.22
2019-05-06T18:22:17.632Z,101722.66
2019-05-06T18:24:47.418Z,101717.33
2019-05-06T18:27:17.176Z,101725.02
2019-05-06T18:29:46.931Z,101717.33
2019-05-06T18:32:16.712Z,101723.36
2019-05-06T18:34:46.459Z,101721.25
2019-05-06T18:37:16.285Z,101726.02
2019-05-06T18:39:46.005Z,101731.90
2019-05-06T18:42:20.216Z,101732.89
2019-05-06T18:44:47.447Z,101726.54
2019-05-06T18:47:17.271Z,101733.93
2019-05-06T18:49:47.056Z,101729.61
2019-05-06T18:52:16.897Z,101728.23
2019-05-06T18:54:46.555Z,101731.19
2019-05-06T18:57:16.411Z,101733.05
2019-05-06T18:59:46.222Z,101733.52
2019-05-06T19:02:16.083Z,101732.92
2019-05-06T19:04:53.080Z,101735.02
2019-05-06T19:07:22.845Z,101740.56
2019-05-06T19:09:53.776Z,101742.97
2019-05-06T19:12:31.918Z,101742.86
2019-05-06T19:14:55.004Z,101749.97
2019-05-06T19:17:25.260Z,101747.18
2019-05-06T19:19:55.057Z,101756.36
2019-05-06T19:22:24.818Z,101759.95
2019-05-06T19:24:54.548Z,101763.84
2019-05-06T19:27:25.003Z,101767.25
2019-05-06T19:29:54.866Z,101761.39
2019-05-06T19:32:25.695Z,101765.13
2019-05-06T19:34:55.435Z,101760.09
2019-05-06T19:37:25.196Z,101762.76
2019-05-06T19:39:54.833Z,101762.70
2019-05-06T19:42:24.543Z,101766.09
2019-05-06T19:44:54.213Z,101771.77
2019-05-06T19:47:23.850Z,101768.80
2019-05-06T19:49:53.629Z,101767.78
2019-05-06T19:52:25.095Z,101770.27
2019-05-06T19:54:55.348Z,101771.39
2019-05-06T19:57:25.040Z,101769.71
2019-05-06T19:59:54.792Z,101773.39
2019-05-06T20:02:25.823Z,101775.33
2019-05-06T20:04:57.378Z,101768.63
2019-05-06T20:07:37.835Z,101775.28
2019-05-06T20:10:09.816Z,101772.89
2019-05-06T20:12:58.326Z,101775.33
2019-05-06T20:15:22.402Z,101777.09
2019-05-06T20:17:52.201Z,101772.37
2019-05-06T20:20:22.859Z,101777.89
2019-05-06T20:22:52.677Z,101767.77
2019-05-06T20:25:22.456Z,101776.11
2019-05-06T20:27:52.719Z,101777.14
2019-05-06T20:30:22.641Z,101764.59
2019-05-06T20:32:53.462Z,101766.70
2019-05-06T20:35:23.314Z,101768.02
2019-05-06T20:37:53.527Z,101765.63
2019-05-06T20:40:23.449Z,101773.05
2019-05-06T20:42:53.189Z,101766.70
2019-05-06T20:45:23.004Z,101775.23
2019-05-06T20:47:52.729Z,101773.10
2019-05-06T20:50:22.704Z,101768.86
2019-05-06T20:52:52.778Z,101768.08
2019-05-06T20:55:22.998Z,101771.51
2019-05-06T20:57:53.057Z,101773.05
2019-05-06T21:00:23.223Z,101772.02
2019-05-06T21:02:53.555Z,101777.89
2019-05-06T21:05:23.320Z,101774.94
2019-05-06T21:07:53.346Z,101777.91
2019-05-06T21:10:23.010Z,101783.69
2019-05-06T21:12:53.332Z,101779.17
2019-05-06T21:15:23.216Z,101785.31
2019-05-06T21:17:53.026Z,101782.65
2019-05-06T21:20:22.904Z,101779.64
2019-05-06T21:22:52.826Z,101780.72
2019-05-06T21:25:22.760Z,101775.34
2019-05-06T21:27:53.173Z,101774.88
2019-05-06T21:30:24.629Z,101771.41
2019-05-06T21:32:54.505Z,101768.17
2019-05-06T21:35:24.300Z,101766.89
2019-05-06T21:37:54.010Z,101768.45
2019-05-06T21:40:23.663Z,101772.57
2019-05-06T21:42:53.380Z,101771.19
2019-05-06T21:45:23.116Z,101770.58
2019-05-06T21:47:53.145Z,101771.20
2019-05-06T21:50:22.952Z,101774.83
2019-05-06T21:52:52.784Z,101776.92
2019-05-06T21:55:22.805Z,101774.81
2019-05-06T21:57:53.092Z,101769.20
2019-05-06T22:00:25.339Z,101771.85
2019-05-06T22:02:55.062Z,101768.13
2019-05-06T22:05:24.714Z,101768.90
2019-05-06T22:07:54.428Z,101770.52
2019-05-06T22:10:25.074Z,101775.03
2019-05-06T22:12:54.895Z,101774.52
2019-05-06T22:15:24.657Z,101766.49
2019-05-06T22:17:54.564Z,101768.59
2019-05-06T22:20:24.306Z,101762.19
2019-05-06T22:22:54.110Z,101762.95
2019-05-06T22:25:23.893Z,101762.14
2019-05-06T22:27:53.536Z,101758.16
2019-05-06T22:30:23.893Z,101757.33
2019-05-06T22:32:53.623Z,101757.66
2019-05-06T22:35:23.309Z,101755.80
2019-05-06T22:37:53.157Z,101755.48
2019-05-06T22:40:23.879Z,101755.17
2019-05-06T22:42:53.643Z,101757.83
2019-05-06T22:45:23.293Z,101754.16
2019-05-06T22:47:54.644Z,101753.84
2019-05-06T22:50:24.353Z,101751.70
2019-05-06T22:52:54.063Z,101755.44
2019-05-06T22:55:23.731Z,101751.20
2019-05-06T22:57:53.438Z,101753.03
2019-05-06T23:00:26.272Z,101753.55
2019-05-06T23:03:02.181Z,101749.86
2019-05-06T23:05:32.588Z,101751.75
2019-05-06T23:08:02.849Z,101758.81
2019-05-06T23:10:33.680Z,101761.20
2019-05-06T23:13:03.691Z,101761.47
2019-05-06T23:15:34.238Z,101760.33
2019-05-06T23:18:04.276Z,101766.97
2019-05-06T23:20:34.107Z,101764.11
2019-05-06T23:23:04.917Z,101766.09
2019-05-06T23:25:34.879Z,101761.59
2019-05-06T23:28:04.982Z,101761.84
2019-05-06T23:30:34.877Z,101760.78
2019-05-06T23:33:04.730Z,101762.91
2019-05-06T23:35:34.443Z,101756.53
2019-05-06T23:38:58.777Z,101761.58
2019-05-06T23:42:23.412Z,101758.13
2019-05-06T23:45:47.876Z,101753.61
2019-05-06T23:49:12.981Z,101760.72
2019-05-06T23:52:36.702Z,101759.39
2019-05-06T23:56:00.065Z,101758.36
2019-05-06T23:58:32.218Z,101757.03
